Time;durP1;ratioP1;P1;durP2;ratioP2;P2;SDS_P1;SDS_P2;PMS_P1;PMS_P2;Temp;Humidity;BMP_temperature;BMP_pressure;BME280_temperature;BME280_humidity;BME280_pressure;Samples;Min_cycle;Max_cycle;Signal;HPM_P1;HPM_P2
2022/07/15 00:01:44;;;;;;;5.05;1.70;;;19.70;64.10;;;;;;6201656;28;20055;-83
2022/07/15 00:04:46;;;;;;;4.30;1.20;;;19.60;64.80;;;;;;6200894;28;20047;-83
2022/07/15 00:07:48;;;;;;;6.43;1.70;;;19.50;65.30;;;;;;6200658;28;20050;-82
2022/07/15 00:10:49;;;;;;;3.63;1.77;;;19.40;65.60;;;;;;6203001;28;20061;-83
2022/07/15 00:13:52;;;;;;;3.70;1.30;;;19.30;65.80;;;;;;6206332;28;20053;-83
2022/07/15 00:16:54;;;;;;;2.75;1.42;;;19.20;66.20;;;;;;6205743;28;20056;-82
2022/07/15 00:19:56;;;;;;;4.32;1.48;;;19.10;66.70;;;;;;6205758;28;20057;-82
2022/07/15 00:22:57;;;;;;;6.85;1.58;;;19.00;67.60;;;;;;6206248;28;20044;-82
2022/07/15 00:25:59;;;;;;;4.93;1.90;;;19.00;68.10;;;;;;6202449;28;20061;-82
2022/07/15 00:29:02;;;;;;;5.05;1.55;;;18.90;68.40;;;;;;6182703;28;20524;-85
2022/07/15 00:32:04;;;;;;;5.53;1.92;;;18.90;68.70;;;;;;6181175;28;20042;-82
2022/07/15 00:35:07;;;;;;;5.95;1.23;;;18.80;69.20;;;;;;6181490;28;20062;-82
2022/07/15 00:38:09;;;;;;;4.65;1.60;;;18.80;69.70;;;;;;6181981;28;20055;-83
2022/07/15 00:41:11;;;;;;;4.55;1.90;;;18.70;70.40;;;;;;6200476;28;20053;-81
2022/07/15 00:44:14;;;;;;;6.00;1.77;;;18.60;71.00;;;;;;6180486;28;20066;-83
2022/07/15 00:47:16;;;;;;;10.13;2.30;;;18.50;71.60;;;;;;6180472;28;20051;-84
2022/07/15 00:50:19;;;;;;;4.18;1.77;;;18.50;72.20;;;;;;6181081;28;20050;-83
2022/07/15 00:53:22;;;;;;;3.95;2.00;;;18.40;72.60;;;;;;6181774;28;20051;-83
2022/07/15 00:56:26;;;;;;;4.40;1.77;;;18.30;73.10;;;;;;6180002;28;20484;-82
2022/07/15 00:59:34;;;;;;;4.57;2.05;;;18.20;73.60;;;;;;6179866;28;20070;-84
2022/07/15 01:02:37;;;;;;;3.35;2.08;;;18.10;74.20;;;;;;6180711;28;20051;-82
2022/07/15 01:05:40;;;;;;;3.35;2.00;;;18.00;74.50;;;;;;6181681;28;20054;-82
2022/07/15 01:08:41;;;;;;;4.20;1.90;;;17.90;75.10;;;;;;6180687;28;20509;-83
2022/07/15 01:11:43;;;;;;;6.90;1.65;;;17.90;75.90;;;;;;6180528;28;20529;-83
2022/07/15 01:14:46;;;;;;;4.65;1.90;;;17.80;76.40;;;;;;6179662;28;20039;-86
2022/07/15 01:17:48;;;;;;;7.60;1.75;;;17.70;76.80;;;;;;6180077;28;20058;-82
2022/07/15 01:20:51;;;;;;;4.68;1.70;;;17.60;77.50;;;;;;6179785;28;20047;-82
2022/07/15 01:23:53;;;;;;;62.30;36.58;;;17.50;77.90;;;;;;6178766;28;20054;-81
2022/07/15 01:26:54;;;;;;;6.53;2.20;;;17.50;78.80;;;;;;6178577;28;20415;-82
2022/07/15 01:29:56;;;;;;;3.53;1.70;;;17.40;79.20;;;;;;6194312;28;20061;-84
2022/07/15 01:32:58;;;;;;;6.35;2.90;;;17.30;79.60;;;;;;6203542;28;20052;-82
2022/07/15 01:36:02;;;;;;;34.60;3.50;;;17.30;79.80;;;;;;6188711;28;20054;-83
2022/07/15 01:39:04;;;;;;;1.58;0.82;;;17.20;80.40;;;;;;6185997;28;20050;-82
2022/07/15 01:42:06;;;;;;;97.15;5.03;;;17.20;80.90;;;;;;6203289;28;20428;-84
2022/07/15 01:45:09;;;;;;;29.52;3.45;;;17.10;81.40;;;;;;6179285;28;20043;-83
2022/07/15 01:49:21;;;;;;;1160.60;126.35;;;17.00;81.90;;;;;;6195580;28;20504;-84
2022/07/15 01:51:35;;;;;;;1999.90;250.15;;;16.90;83.20;;;;;;6203303;28;20121;-82
2022/07/15 01:54:37;;;;;;;372.33;173.13;;;16.80;83.30;;;;;;6203164;28;20412;-84
2022/07/15 01:57:39;;;;;;;85.07;4.82;;;16.80;83.70;;;;;;6203803;28;20061;-84
2022/07/15 02:00:40;;;;;;;55.13;49.28;;;16.80;84.10;;;;;;6203452;28;20610;-83
2022/07/15 02:03:42;;;;;;;166.38;102.03;;;16.70;84.50;;;;;;6202738;28;20144;-83
2022/07/15 02:06:45;;;;;;;4.47;2.25;;;16.70;85.00;;;;;;6202802;28;20416;-82
2022/07/15 02:09:47;;;;;;;1351.28;156.30;;;16.60;85.40;;;;;;6202995;28;20050;-82
2022/07/15 02:12:49;;;;;;;351.15;183.05;;;16.60;85.90;;;;;;6202453;28;20050;-82
2022/07/15 02:15:51;;;;;;;15.25;3.78;;;16.50;85.80;;;;;;6203050;28;20053;-84
2022/07/15 02:18:53;;;;;;;30.50;3.78;;;16.50;86.00;;;;;;6202856;28;20042;-82
2022/07/15 02:21:56;;;;;;;6.93;1.80;;;16.50;86.00;;;;;;6203108;28;20061;-82
2022/07/15 02:24:58;;;;;;;484.55;179.35;;;16.40;85.80;;;;;;6202616;28;20053;-83
2022/07/15 02:28:02;;;;;;;48.60;4.68;;;16.40;86.30;;;;;;6202239;28;20050;-83
2022/07/15 02:31:05;;;;;;;26.80;3.17;;;16.40;86.80;;;;;;6202474;28;20053;-82
2022/07/15 02:34:07;;;;;;;32.20;5.95;;;16.50;87.10;;;;;;6202672;28;20141;-84
2022/07/15 02:37:10;;;;;;;18.33;2.38;;;16.40;87.20;;;;;;6202173;28;20052;-84
2022/07/15 02:40:13;;;;;;;56.10;3.55;;;16.50;87.50;;;;;;6203041;28;20420;-82
2022/07/15 02:43:14;;;;;;;3.63;2.10;;;16.40;87.60;;;;;;6201173;28;20054;-83
2022/07/15 02:46:17;;;;;;;4.55;2.05;;;16.40;87.90;;;;;;6200110;28;20423;-81
2022/07/15 02:49:19;;;;;;;4.65;2.00;;;16.30;87.60;;;;;;6202562;28;20052;-83
2022/07/15 02:52:22;;;;;;;5.15;2.33;;;16.20;88.10;;;;;;6201931;28;20050;-81
2022/07/15 02:55:24;;;;;;;6.88;2.47;;;16.30;88.80;;;;;;6201548;28;20069;-84
2022/07/15 02:58:26;;;;;;;5.10;2.25;;;16.20;89.20;;;;;;6202172;28;20535;-82
2022/07/15 03:01:27;;;;;;;4.07;1.90;;;16.20;89.70;;;;;;6202579;28;20423;-81
2022/07/15 03:04:29;;;;;;;4.38;2.30;;;16.10;90.30;;;;;;6200765;28;20046;-83
2022/07/15 03:07:32;;;;;;;2.65;1.88;;;16.10;89.70;;;;;;6201382;28;20050;-83
2022/07/15 03:10:34;;;;;;;7.20;2.10;;;16.10;89.80;;;;;;6200611;28;20542;-81
2022/07/15 03:13:36;;;;;;;7.07;2.40;;;16.10;90.00;;;;;;6201799;28;20050;-84
2022/07/15 03:16:37;;;;;;;2.75;1.85;;;16.00;90.20;;;;;;6200243;28;20038;-81
2022/07/15 03:19:39;;;;;;;2.65;2.15;;;15.90;90.30;;;;;;6200800;28;20053;-81
2022/07/15 03:22:43;;;;;;;3.15;2.00;;;15.90;90.40;;;;;;6200593;28;20046;-82
2022/07/15 03:25:44;;;;;;;4.00;1.80;;;15.80;90.60;;;;;;6201562;28;20046;-83
2022/07/15 03:28:46;;;;;;;6.60;2.35;;;15.80;90.90;;;;;;6200918;28;20048;-83
2022/07/15 03:31:48;;;;;;;4.20;2.38;;;15.80;91.00;;;;;;6205963;28;20046;-83
2022/07/15 03:34:50;;;;;;;6.05;2.70;;;15.80;91.00;;;;;;6206241;28;20049;-83
2022/07/15 03:37:53;;;;;;;23.13;5.90;;;15.90;90.90;;;;;;6205114;28;20141;-84
2022/07/15 03:40:54;;;;;;;17.08;3.47;;;16.00;90.90;;;;;;6204948;28;20050;-82
2022/07/15 03:43:57;;;;;;;6.75;2.97;;;16.10;91.00;;;;;;6204409;28;20054;-84
2022/07/15 03:46:58;;;;;;;3.63;2.33;;;16.20;91.00;;;;;;6208929;28;20048;-84
2022/07/15 03:50:00;;;;;;;7.57;2.38;;;16.20;90.90;;;;;;6211465;28;20050;-83
2022/07/15 03:53:03;;;;;;;3.70;2.55;;;16.10;90.90;;;;;;6213092;28;20053;-84
2022/07/15 03:56:05;;;;;;;4.50;2.63;;;16.10;90.90;;;;;;6193797;28;20047;-83
2022/07/15 03:59:07;;;;;;;4.28;2.50;;;16.20;91.00;;;;;;6184222;28;20057;-83
2022/07/15 04:02:09;;;;;;;5.38;2.72;;;16.20;90.70;;;;;;6185032;28;20083;-85
2022/07/15 04:05:10;;;;;;;3.65;2.45;;;16.20;90.40;;;;;;6210182;28;20050;-84
2022/07/15 04:08:13;;;;;;;3.65;2.42;;;16.20;90.60;;;;;;6210025;28;20053;-83
2022/07/15 04:11:15;;;;;;;5.25;3.05;;;16.10;90.80;;;;;;6249488;22;20057;-78
2022/07/15 04:14:18;;;;;;;7.30;3.83;;;16.20;90.80;;;;;;6274893;28;20052;-78
2022/07/15 04:17:20;;;;;;;7.43;2.72;;;16.30;90.80;;;;;;6275203;28;20052;-78
2022/07/15 04:20:22;;;;;;;8.43;2.58;;;16.40;90.70;;;;;;6274733;28;20060;-78
2022/07/15 04:23:25;;;;;;;5.22;2.20;;;16.50;90.50;;;;;;6274763;28;20053;-78
2022/07/15 04:26:27;;;;;;;5.88;2.75;;;16.70;90.30;;;;;;6274382;28;20048;-77
2022/07/15 04:29:29;;;;;;;5.90;2.42;;;16.80;90.10;;;;;;6274790;28;20132;-77
2022/07/15 04:32:31;;;;;;;9.10;2.92;;;16.80;90.00;;;;;;6274266;28;20052;-77
2022/07/15 04:35:33;;;;;;;4.75;2.13;;;16.90;90.00;;;;;;6274773;28;20036;-78
2022/07/15 04:38:36;;;;;;;8.07;2.35;;;17.00;89.60;;;;;;6274441;28;20056;-78
2022/07/15 04:41:38;;;;;;;11.30;2.33;;;17.20;89.40;;;;;;6274912;28;20064;-78
2022/07/15 04:44:40;;;;;;;11.07;2.17;;;17.40;88.80;;;;;;6273340;28;20447;-77
2022/07/15 04:47:41;;;;;;;5.00;2.65;;;18.00;87.50;;;;;;6236592;28;20046;-78
2022/07/15 04:50:51;;;;;;;11.13;2.67;;;19.60;82.60;;;;;;6224447;28;20658;-78
2022/07/15 04:53:54;;;;;;;6.90;2.72;;;21.20;76.50;;;;;;6225344;28;20046;-78
2022/07/15 04:56:56;;;;;;;4.78;2.00;;;22.80;70.50;;;;;;6224287;28;20414;-79
2022/07/15 04:59:57;;;;;;;5.40;1.90;;;23.90;65.70;;;;;;6224586;28;20056;-78
2022/07/15 05:02:59;;;;;;;3.97;2.05;;;24.90;61.80;;;;;;6224522;28;20160;-78
2022/07/15 05:06:01;;;;;;;8.43;2.00;;;26.10;57.90;;;;;;6225084;28;20045;-79
2022/07/15 05:09:05;;;;;;;6.47;1.52;;;27.20;54.40;;;;;;6223920;28;20053;-78
2022/07/15 05:12:07;;;;;;;4.05;1.60;;;28.00;51.70;;;;;;6224150;28;20058;-79
2022/07/15 05:15:09;;;;;;;6.28;1.83;;;28.80;49.50;;;;;;6224288;28;20065;-78
2022/07/15 05:18:11;;;;;;;2.10;1.25;;;29.60;47.20;;;;;;6234933;28;20053;-78
2022/07/15 05:21:13;;;;;;;7.78;1.50;;;30.00;45.60;;;;;;6269686;28;20359;-78
2022/07/15 05:24:16;;;;;;;4.93;1.50;;;30.60;44.00;;;;;;6273027;28;20532;-78
2022/07/15 05:27:17;;;;;;;10.00;1.40;;;31.10;43.00;;;;;;6251034;28;20053;-78
2022/07/15 05:30:19;;;;;;;3.53;1.27;;;31.50;42.20;;;;;;6253417;28;20135;-78
2022/07/15 05:33:22;;;;;;;14.25;1.83;;;31.80;40.60;;;;;;6273325;28;20446;-78
2022/07/15 05:36:23;;;;;;;4.28;1.48;;;32.10;39.40;;;;;;6272760;28;20068;-78
2022/07/15 05:39:27;;;;;;;4.75;1.38;;;32.20;39.50;;;;;;6272870;28;20045;-78
2022/07/15 05:42:29;;;;;;;12.73;1.65;;;33.20;38.40;;;;;;6272871;28;20418;-79
2022/07/15 05:45:30;;;;;;;4.25;1.10;;;34.60;36.20;;;;;;6273372;28;20056;-79
2022/07/15 05:48:33;;;;;;;2.47;1.02;;;34.90;34.90;;;;;;6237845;28;20167;-78
2022/07/15 05:51:35;;;;;;;6.18;1.52;;;34.80;34.10;;;;;;6223247;28;20049;-78
2022/07/15 05:54:38;;;;;;;5.65;1.02;;;34.20;34.50;;;;;;6223568;28;20046;-79
2022/07/15 05:57:39;;;;;;;2.65;1.00;;;34.20;34.20;;;;;;6223545;28;20056;-79
2022/07/15 06:00:42;;;;;;;4.93;1.27;;;34.60;33.80;;;;;;6222932;28;20050;-79
2022/07/15 06:03:43;;;;;;;9.40;1.25;;;34.40;33.20;;;;;;6223003;28;20414;-78
2022/07/15 06:06:45;;;;;;;10.10;1.38;;;34.70;33.00;;;;;;6247484;28;20056;-78
2022/07/15 06:09:50;;;;;;;4.82;1.10;;;34.80;32.60;;;;;;6255916;28;20056;-78
2022/07/15 06:12:52;;;;;;;5.28;1.10;;;35.10;32.90;;;;;;6272033;28;20572;-77
2022/07/15 06:15:54;;;;;;;3.60;1.02;;;36.50;31.80;;;;;;6272067;28;20048;-78
2022/07/15 06:18:56;;;;;;;9.48;1.58;;;37.00;31.00;;;;;;6269396;28;20064;-76
2022/07/15 06:21:58;;;;;;;3.97;1.30;;;36.80;30.60;;;;;;6247826;28;20050;-78
2022/07/15 06:25:02;;;;;;;4.30;0.77;;;36.90;30.20;;;;;;6246793;28;20542;-77
2022/07/15 06:28:03;;;;;;;7.32;0.98;;;37.10;30.50;;;;;;6246803;28;20045;-78
2022/07/15 06:31:06;;;;;;;6.95;1.40;;;38.10;30.00;;;;;;6247016;28;20049;-79
2022/07/15 06:34:07;;;;;;;6.22;1.13;;;38.50;29.60;;;;;;6247539;28;20041;-78
2022/07/15 06:37:09;;;;;;;4.07;1.00;;;38.30;29.60;;;;;;6246780;28;20038;-78
2022/07/15 06:40:13;;;;;;;9.15;1.55;;;38.20;29.80;;;;;;6247595;28;20049;-78
2022/07/15 06:43:15;;;;;;;2.58;0.80;;;38.50;29.70;;;;;;6247219;28;20068;-79
2022/07/15 06:46:16;;;;;;;2.05;0.73;;;38.90;29.40;;;;;;6248355;28;20046;-77
2022/07/15 06:49:18;;;;;;;4.28;0.90;;;39.10;28.60;;;;;;6240799;28;20053;-77
2022/07/15 06:52:20;;;;;;;4.20;1.05;;;37.00;29.30;;;;;;6246576;28;20075;-76
2022/07/15 06:55:23;;;;;;;4.82;0.93;;;33.60;32.30;;;;;;6246482;28;20056;-76
2022/07/15 06:58:25;;;;;;;3.22;1.08;;;30.90;35.10;;;;;;6246226;28;20052;-75
2022/07/15 07:01:26;;;;;;;8.13;1.08;;;29.00;37.60;;;;;;6247035;28;20050;-76
2022/07/15 07:04:28;;;;;;;4.88;1.20;;;27.90;39.80;;;;;;6245878;28;20049;-76
2022/07/15 07:07:30;;;;;;;4.32;1.10;;;27.50;40.70;;;;;;6246062;28;20046;-76
2022/07/15 07:10:33;;;;;;;7.30;1.55;;;27.30;41.20;;;;;;6245749;28;20412;-77
2022/07/15 07:13:35;;;;;;;4.75;0.98;;;27.00;41.90;;;;;;6246877;28;20052;-76
2022/07/15 07:16:37;;;;;;;3.03;0.95;;;26.80;42.20;;;;;;6245505;28;20407;-77
2022/07/15 07:19:38;;;;;;;2.28;0.82;;;26.90;42.50;;;;;;6245236;28;20045;-77
2022/07/15 07:22:40;;;;;;;5.70;0.82;;;26.90;42.70;;;;;;6245637;28;20396;-76
2022/07/15 07:25:43;;;;;;;5.05;0.90;;;27.00;42.70;;;;;;6246264;28;20053;-78
2022/07/15 07:28:48;;;;;;;3.55;1.13;;;27.10;42.60;;;;;;6245694;28;20056;-77
2022/07/15 07:31:50;;;;;;;3.58;0.88;;;27.10;42.50;;;;;;6245810;28;20519;-76
2022/07/15 07:34:51;;;;;;;2.35;0.70;;;27.20;42.30;;;;;;6245811;28;20046;-76
2022/07/15 07:37:53;;;;;;;4.13;0.90;;;27.50;42.10;;;;;;6246033;28;20057;-76
2022/07/15 07:40:56;;;;;;;1.77;0.77;;;27.50;41.60;;;;;;6245598;28;20042;-76
2022/07/15 07:43:58;;;;;;;6.25;0.63;;;27.40;41.40;;;;;;6245562;28;20045;-76
2022/07/15 07:47:00;;;;;;;4.25;0.85;;;27.40;41.80;;;;;;6245432;28;20526;-76
2022/07/15 07:50:01;;;;;;;5.10;1.00;;;27.60;42.40;;;;;;6232719;28;20114;-77
2022/07/15 07:53:03;;;;;;;4.22;1.10;;;27.70;41.20;;;;;;6221101;28;20046;-76
2022/07/15 07:56:07;;;;;;;3.00;0.98;;;27.70;41.00;;;;;;6221058;28;20511;-76
2022/07/15 07:59:09;;;;;;;1.65;0.38;;;27.80;40.70;;;;;;6244512;28;20048;-77
2022/07/15 08:02:11;;;;;;;3.22;1.13;;;27.90;40.70;;;;;;6266128;28;20386;-76
2022/07/15 08:05:12;;;;;;;5.68;1.15;;;27.90;40.80;;;;;;6266204;28;20421;-76
2022/07/15 08:08:16;;;;;;;6.18;1.00;;;27.90;40.60;;;;;;6269953;28;20041;-76
2022/07/15 08:11:19;;;;;;;2.95;1.00;;;27.80;40.80;;;;;;6269674;28;20045;-77
2022/07/15 08:14:21;;;;;;;6.40;1.10;;;27.80;41.00;;;;;;6248210;28;20128;-76
2022/07/15 08:17:23;;;;;;;5.75;0.60;;;27.80;40.50;;;;;;6245965;28;20056;-76
2022/07/15 08:20:25;;;;;;;6.10;1.00;;;27.90;40.60;;;;;;6245171;28;20100;-76
2022/07/15 08:23:27;;;;;;;5.75;0.60;;;28.00;40.50;;;;;;6245484;28;20053;-77
2022/07/15 08:26:30;;;;;;;1.83;0.60;;;28.20;40.50;;;;;;6259437;28;20489;-77
2022/07/15 08:29:32;;;;;;;5.43;1.02;;;28.50;39.80;;;;;;6270473;28;20049;-77
2022/07/15 08:32:34;;;;;;;1.58;0.57;;;28.60;39.30;;;;;;6243273;28;20556;-79
2022/07/15 08:35:36;;;;;;;2.72;0.77;;;28.60;38.60;;;;;;6249011;28;20466;-76
2022/07/15 08:38:37;;;;;;;4.80;0.95;;;28.50;39.50;;;;;;6253145;28;20046;-75
2022/07/15 08:41:41;;;;;;;4.15;0.85;;;28.50;39.00;;;;;;6240944;28;20061;-78
2022/07/15 08:44:42;;;;;;;3.35;0.75;;;28.60;39.20;;;;;;6244664;28;20608;-76
2022/07/15 08:47:46;;;;;;;4.57;1.10;;;28.80;38.50;;;;;;6249124;28;20053;-75
2022/07/15 08:50:48;;;;;;;2.35;0.68;;;28.90;38.40;;;;;;6240706;28;20049;-76
2022/07/15 08:53:51;;;;;;;4.80;0.70;;;29.00;38.10;;;;;;6225883;28;20057;-77
2022/07/15 08:56:54;;;;;;;3.05;0.70;;;29.10;38.10;;;;;;6224520;28;20042;-75
2022/07/15 08:59:55;;;;;;;3.10;0.70;;;29.10;38.30;;;;;;6225051;28;20048;-76
2022/07/15 09:02:58;;;;;;;2.85;1.08;;;29.30;38.20;;;;;;6225108;28;20050;-78
2022/07/15 09:06:00;;;;;;;16.40;2.53;;;29.40;37.90;;;;;;6247848;28;20060;-76
2022/07/15 09:09:22;;;;;;;2.78;0.65;;;29.20;38.20;;;;;;6249184;28;20061;-79
2022/07/15 09:12:25;;;;;;;6.30;1.00;;;29.30;37.90;;;;;;6249402;28;20053;-76
2022/07/15 09:15:33;;;;;;;1.80;0.70;;;29.50;37.80;;;;;;6249886;28;20045;-79
2022/07/15 09:18:38;;;;;;;1.77;0.45;;;29.60;37.70;;;;;;6248819;28;20124;-76
2022/07/15 09:21:43;;;;;;;5.05;0.73;;;29.60;37.40;;;;;;6249700;28;20140;-78
2022/07/15 09:24:44;;;;;;;3.83;1.08;;;29.70;37.30;;;;;;6249050;28;20400;-77
2022/07/15 09:27:48;;;;;;;3.63;0.40;;;29.80;37.20;;;;;;6248692;28;20053;-77
2022/07/15 09:34:09;;;;;;;1.88;0.60;;;30.00;36.80;;;;;;6248898;28;20053;-76
2022/07/15 09:37:11;;;;;;;3.83;0.50;;;30.10;36.60;;;;;;6248405;28;20052;-76
2022/07/15 09:40:12;;;;;;;2.88;1.15;;;30.20;36.40;;;;;;6248418;28;20049;-77
2022/07/15 09:43:15;;;;;;;3.33;0.60;;;30.20;36.50;;;;;;6248114;28;20041;-76
2022/07/15 09:46:18;;;;;;;2.92;0.32;;;30.40;36.00;;;;;;6249007;28;20064;-78
2022/07/15 09:49:33;;;;;;;3.28;0.90;;;30.40;36.00;;;;;;6240807;28;20050;-78
2022/07/15 09:52:46;;;;;;;6.18;0.63;;;30.50;36.00;;;;;;6262755;28;20075;-78
2022/07/15 09:55:48;;;;;;;3.60;0.93;;;30.70;35.70;;;;;;6242212;28;20120;-78
2022/07/15 09:58:52;;;;;;;3.08;1.05;;;30.60;36.00;;;;;;6271965;28;20040;-78
2022/07/15 10:01:54;;;;;;;3.40;0.73;;;30.70;36.00;;;;;;6248928;28;20045;-79
2022/07/15 10:04:56;;;;;;;3.83;1.15;;;31.00;35.70;;;;;;6246057;28;20056;-77
2022/07/15 10:07:59;;;;;;;6.00;1.10;;;31.00;35.60;;;;;;6247796;28;20045;-78
2022/07/15 10:11:01;;;;;;;1.77;0.50;;;31.20;35.20;;;;;;6260642;22;20045;-77
2022/07/15 10:14:29;;;;;;;3.45;0.90;;;31.90;34.90;;;;;;6225767;28;20050;-77
2022/07/15 10:17:44;;;;;;;1.20;0.60;;;33.20;33.20;;;;;;6225279;28;20487;-78
2022/07/15 10:21:09;;;;;;;3.67;0.68;;;34.10;31.90;;;;;;6224062;28;20060;-77
2022/07/15 10:24:30;;;;;;;1.92;0.63;;;34.20;31.30;;;;;;6224267;28;20513;-77
2022/07/15 10:27:46;;;;;;;3.70;0.60;;;33.60;31.50;;;;;;6224002;28;20048;-76
2022/07/15 10:31:16;;;;;;;2.80;0.85;;;33.10;32.10;;;;;;6199278;28;20038;-77
2022/07/15 10:34:23;;;;;;;6.47;1.10;;;32.60;32.40;;;;;;6209397;28;20052;-77
2022/07/15 10:37:27;;;;;;;3.78;0.80;;;32.50;32.40;;;;;;6225124;28;20068;-77
2022/07/15 10:40:57;;;;;;;5.78;0.82;;;32.40;32.90;;;;;;6224950;28;20077;-77
2022/07/15 10:44:10;;;;;;;4.45;0.70;;;32.40;32.70;;;;;;6227503;28;20060;-79
2022/07/15 10:47:20;;;;;;;9.95;1.20;;;32.40;32.60;;;;;;6227419;28;20073;-78
2022/07/15 10:50:40;;;;;;;3.15;1.15;;;32.40;32.60;;;;;;6226466;28;20050;-78
2022/07/15 10:53:46;;;;;;;14.38;1.13;;;32.40;32.50;;;;;;6215673;28;20073;-78
2022/07/15 10:56:51;;;;;;;9.93;0.82;;;32.50;32.60;;;;;;6228062;28;20048;-78
2022/07/15 10:59:55;;;;;;;3.75;0.60;;;32.60;32.30;;;;;;6234371;28;20434;-78
2022/07/15 11:03:11;;;;;;;2.70;0.75;;;32.90;32.20;;;;;;6235956;28;20049;-78
2022/07/15 11:06:13;;;;;;;2.40;0.80;;;33.00;32.30;;;;;;6233500;28;20053;-77
2022/07/15 11:09:49;;;;;;;5.30;0.55;;;33.20;32.40;;;;;;6231002;28;20104;-77
2022/07/15 11:13:00;;;;;;;3.47;0.60;;;33.10;32.40;;;;;;6233025;28;20062;-78
2022/07/15 11:16:03;;;;;;;6.03;0.98;;;33.30;32.20;;;;;;6227560;28;20112;-78
2022/07/15 11:19:12;;;;;;;3.45;1.02;;;33.50;32.10;;;;;;6225223;28;20053;-78
2022/07/15 11:22:13;;;;;;;3.53;0.60;;;33.40;31.90;;;;;;6225316;28;20045;-78
2022/07/15 11:25:20;;;;;;;6.07;0.60;;;33.50;32.00;;;;;;6225890;28;20503;-79
2022/07/15 11:28:22;;;;;;;1.58;0.75;;;33.60;32.30;;;;;;6224748;28;20069;-78
2022/07/15 11:31:25;;;;;;;3.10;0.65;;;33.60;31.20;;;;;;6225123;28;20046;-78
2022/07/15 11:34:38;;;;;;;2.60;0.82;;;33.80;31.20;;;;;;6224081;28;20050;-77
2022/07/15 11:37:40;;;;;;;6.18;0.65;;;33.90;30.90;;;;;;6224109;28;20046;-78
2022/07/15 11:47:29;;;;;;;3.65;1.65;;;33.70;30.90;;;;;;6223627;28;20060;-78
2022/07/15 11:50:32;;;;;;;4.68;0.90;;;33.70;31.20;;;;;;6224152;28;20050;-78
2022/07/15 11:53:38;;;;;;;2.50;0.93;;;33.90;31.10;;;;;;6222908;28;20050;-78
2022/07/15 11:56:40;;;;;;;6.60;0.60;;;34.10;31.00;;;;;;6209496;28;20053;-78
2022/07/15 11:59:55;;;;;;;2.65;0.60;;;34.30;30.10;;;;;;6207776;28;20046;-78
2022/07/15 12:03:07;;;;;;;1.40;0.60;;;34.60;30.10;;;;;;6224200;28;20060;-79
2022/07/15 12:06:13;;;;;;;2.78;0.75;;;34.70;30.00;;;;;;6225115;28;20057;-78
2022/07/15 12:09:15;;;;;;;1.40;0.50;;;34.80;29.70;;;;;;6229548;28;20043;-78
2022/07/15 12:12:17;;;;;;;1.88;0.65;;;34.90;29.80;;;;;;6229083;28;20392;-78
2022/07/15 12:15:19;;;;;;;4.03;0.77;;;35.10;29.70;;;;;;6228291;28;20060;-78
2022/07/15 12:18:21;;;;;;;3.83;0.80;;;35.10;29.50;;;;;;6227650;28;20060;-78
2022/07/15 12:21:26;;;;;;;3.47;0.60;;;35.30;28.90;;;;;;6228428;28;20057;-78
2022/07/15 12:24:39;;;;;;;3.90;0.77;;;35.50;29.20;;;;;;6228275;28;20057;-78
2022/07/15 12:27:43;;;;;;;1.63;0.60;;;35.60;29.50;;;;;;6231285;28;20445;-78
2022/07/15 12:30:46;;;;;;;7.88;1.23;;;35.60;29.00;;;;;;6228467;28;20060;-77
2022/07/15 12:33:51;;;;;;;2.88;0.60;;;35.40;29.50;;;;;;6228689;28;20058;-78
2022/07/15 12:36:58;;;;;;;3.22;0.63;;;35.60;29.20;;;;;;6228899;28;20046;-78
2022/07/15 12:40:02;;;;;;;2.90;0.60;;;35.60;29.30;;;;;;6228919;28;20042;-78
2022/07/15 12:43:03;;;;;;;3.03;0.70;;;35.70;29.30;;;;;;6229717;28;20038;-78
2022/07/15 12:46:06;;;;;;;3.67;0.80;;;35.90;29.10;;;;;;6230993;28;20058;-78
2022/07/15 12:49:07;;;;;;;4.55;1.15;;;36.10;29.00;;;;;;6228396;28;20149;-78
2022/07/15 12:52:15;;;;;;;2.97;0.82;;;36.10;28.90;;;;;;6228438;28;20176;-79
2022/07/15 12:55:19;;;;;;;1.35;0.50;;;35.80;28.70;;;;;;6227584;28;20046;-78
2022/07/15 12:58:25;;;;;;;1.13;0.47;;;35.60;29.20;;;;;;6228298;28;20042;-81
2022/07/15 13:01:27;;;;;;;7.13;0.90;;;35.60;29.30;;;;;;6228102;28;20521;-79
2022/07/15 13:04:29;;;;;;;2.78;0.28;;;35.80;29.20;;;;;;6229708;28;20562;-80
2022/07/15 13:07:32;;;;;;;7.43;1.10;;;35.90;29.00;;;;;;6228857;28;20041;-79
2022/07/15 13:10:34;;;;;;;2.45;0.40;;;35.90;28.90;;;;;;6228680;28;20042;-79
2022/07/15 13:13:38;;;;;;;4.80;0.43;;;36.00;29.20;;;;;;6229157;28;20136;-79
2022/07/15 13:16:40;;;;;;;2.22;0.60;;;36.20;28.90;;;;;;6228790;28;20049;-79
2022/07/15 13:19:45;;;;;;;4.43;1.85;;;36.20;29.10;;;;;;6226982;28;20052;-79
2022/07/15 13:22:48;;;;;;;3.80;0.57;;;36.30;29.20;;;;;;6232970;28;20052;-78
2022/07/15 13:25:50;;;;;;;5.38;0.43;;;36.30;28.60;;;;;;6236520;28;20068;-78
2022/07/15 13:28:52;;;;;;;0.95;0.52;;;35.90;29.00;;;;;;6228551;28;20049;-79
2022/07/15 13:31:57;;;;;;;6.28;0.65;;;35.90;29.20;;;;;;6227818;28;20046;-79
2022/07/15 13:35:02;;;;;;;4.00;0.75;;;36.10;28.90;;;;;;6228438;28;20097;-79
2022/07/15 13:38:05;;;;;;;1.25;0.60;;;36.20;28.80;;;;;;6228680;28;20050;-79
2022/07/15 13:41:08;;;;;;;2.22;0.57;;;36.30;28.80;;;;;;6227702;28;20559;-79
2022/07/15 13:44:10;;;;;;;5.85;0.52;;;36.50;28.70;;;;;;6227707;28;20053;-79
2022/07/15 13:47:12;;;;;;;3.65;0.93;;;36.60;28.40;;;;;;6227600;28;20050;-79
2022/07/15 13:53:34;;;;;;;3.58;0.60;;;36.90;28.40;;;;;;6228332;28;20054;-79
2022/07/15 13:56:37;;;;;;;3.15;0.45;;;36.70;28.00;;;;;;6218298;28;20052;-80
2022/07/15 13:59:38;;;;;;;1.33;0.63;;;36.10;28.70;;;;;;6227392;28;20046;-79
2022/07/15 14:02:41;;;;;;;1.08;0.50;;;35.90;28.90;;;;;;6227352;28;20042;-79
2022/07/15 14:05:43;;;;;;;2.60;0.43;;;35.80;28.90;;;;;;6223051;28;20061;-79
2022/07/15 14:08:46;;;;;;;3.15;0.40;;;35.80;29.10;;;;;;6226186;28;20038;-78
2022/07/15 14:11:48;;;;;;;3.00;0.85;;;35.90;29.10;;;;;;6226092;28;20537;-78
2022/07/15 14:14:52;;;;;;;4.43;0.73;;;35.70;29.10;;;;;;6226802;28;20050;-79
2022/07/15 14:17:54;;;;;;;4.07;0.80;;;35.30;29.30;;;;;;6226510;28;20042;-79
2022/07/15 14:20:58;;;;;;;3.53;1.02;;;34.80;29.60;;;;;;6226107;28;20125;-79
2022/07/15 14:24:01;;;;;;;2.08;0.40;;;34.90;29.80;;;;;;6225803;28;20495;-78
2022/07/15 14:27:03;;;;;;;3.03;0.47;;;34.90;29.90;;;;;;6224764;28;20129;-79
2022/07/15 14:30:07;;;;;;;4.03;0.68;;;34.90;29.90;;;;;;6225850;28;20101;-79
2022/07/15 14:33:11;;;;;;;2.90;0.80;;;35.10;29.70;;;;;;6225434;28;20061;-79
2022/07/15 14:36:13;;;;;;;2.08;0.63;;;35.30;29.70;;;;;;6225571;28;20060;-79
2022/07/15 14:39:17;;;;;;;2.78;0.38;;;35.50;29.40;;;;;;6225393;28;20616;-79
2022/07/15 14:42:18;;;;;;;3.58;0.47;;;35.60;29.50;;;;;;6225316;28;20181;-79
2022/07/15 14:45:20;;;;;;;1.02;0.60;;;35.40;29.40;;;;;;6226682;28;20050;-79
2022/07/15 14:48:22;;;;;;;3.83;0.73;;;34.90;29.40;;;;;;6225819;28;20052;-79
2022/07/15 14:51:24;;;;;;;3.08;0.77;;;34.60;30.00;;;;;;6218680;28;20141;-79
2022/07/15 14:54:27;;;;;;;1.98;0.68;;;34.60;30.10;;;;;;6225532;28;20057;-79
2022/07/15 14:57:29;;;;;;;2.63;0.55;;;34.80;30.20;;;;;;6224581;28;20053;-78
2022/07/15 15:00:31;;;;;;;1.40;0.60;;;35.00;30.10;;;;;;6225164;28;20400;-80
2022/07/15 15:03:33;;;;;;;4.28;1.00;;;35.10;29.70;;;;;;6225759;28;20052;-80
2022/07/15 15:06:34;;;;;;;1.63;0.70;;;34.70;29.90;;;;;;6225379;28;20048;-80
2022/07/15 15:09:40;;;;;;;4.55;0.70;;;34.60;30.20;;;;;;6225936;28;20100;-80
2022/07/15 15:12:42;;;;;;;1.65;0.65;;;34.60;30.30;;;;;;6225276;28;20424;-80
2022/07/15 15:15:43;;;;;;;3.13;0.77;;;34.80;30.20;;;;;;6217205;28;20042;-80
2022/07/15 15:18:45;;;;;;;3.83;0.63;;;34.90;30.00;;;;;;6223369;28;20052;-80
2022/07/15 15:21:47;;;;;;;2.90;0.60;;;34.80;29.80;;;;;;6224677;28;20057;-80
2022/07/15 15:24:50;;;;;;;3.95;0.60;;;34.70;30.00;;;;;;6224009;28;20073;-79
2022/07/15 15:27:52;;;;;;;4.35;0.80;;;34.70;30.00;;;;;;6224665;28;20508;-80
2022/07/15 15:30:55;;;;;;;4.13;0.73;;;34.80;30.00;;;;;;6224559;28;20048;-79
2022/07/15 15:33:56;;;;;;;3.45;0.60;;;35.00;29.90;;;;;;6224986;28;20049;-79
2022/07/15 15:36:58;;;;;;;3.22;1.27;;;34.80;29.80;;;;;;6224511;28;20045;-79
2022/07/15 15:40:01;;;;;;;3.58;0.60;;;34.60;30.00;;;;;;6223568;28;20052;-79
2022/07/15 15:43:04;;;;;;;1.77;0.50;;;34.40;30.00;;;;;;6223763;28;20046;-80
2022/07/15 15:46:06;;;;;;;3.70;0.75;;;34.30;30.30;;;;;;6225294;28;20046;-81
2022/07/15 15:49:07;;;;;;;7.63;1.13;;;34.30;30.50;;;;;;6223862;28;20042;-81
2022/07/15 15:52:09;;;;;;;2.45;0.65;;;34.30;30.50;;;;;;6224018;28;20050;-80
2022/07/15 15:55:12;;;;;;;5.43;0.90;;;34.50;30.20;;;;;;6223910;28;20045;-80
2022/07/15 15:58:14;;;;;;;0.80;0.40;;;34.60;30.00;;;;;;6212563;28;20046;-80
2022/07/15 16:01:16;;;;;;;3.20;0.73;;;34.80;30.00;;;;;;6225473;28;20050;-80
2022/07/15 16:04:17;;;;;;;1.98;1.05;;;34.80;30.00;;;;;;6224555;28;20049;-80
2022/07/15 16:07:19;;;;;;;3.33;0.60;;;34.60;30.20;;;;;;6224273;28;20054;-80